sensor_id;sensor_type;location;lat;lon;timestamp;pressure;altitude;pressure_sealevel;temperature;humidity
20909;BME280;10614;53.198;6.570;2023-02-20T00:00:47;102249.31;;;5.52;100.00
20909;BME280;10614;53.198;6.570;2023-02-20T00:02:49;102245.84;;;5.51;100.00
20909;BME280;10614;53.198;6.570;2023-02-20T00:04:52;102241.47;;;5.52;100.00
20909;BME280;10614;53.198;6.570;2023-02-20T00:06:54;102242.34;;;5.50;100.00
20909;BME280;10614;53.198;6.570;2023-02-20T00:08:55;102227.53;;;5.49;100.00
20909;BME280;10614;53.198;6.570;2023-02-20T00:10:57;102230.16;;;5.48;100.00
20909;BME280;10614;53.198;6.570;2023-02-20T00:12:59;102232.78;;;5.51;100.00
20909;BME280;10614;53.198;6.570;2023-02-20T00:15:00;102225.81;;;5.52;100.00
20909;BME280;10614;53.198;6.570;2023-02-20T00:17:02;102221.44;;;5.52;100.00
20909;BME280;10614;53.198;6.570;2023-02-20T00:19:03;102220.59;;;5.52;100.00
20909;BME280;10614;53.198;6.570;2023-02-20T00:21:06;102214.50;;;5.54;100.00
20909;BME280;10614;53.198;6.570;2023-02-20T00:23:08;102189.25;;;5.55;100.00
20909;BME280;10614;53.198;6.570;2023-02-20T00:25:10;102193.63;;;5.53;100.00
20909;BME280;10614;53.198;6.570;2023-02-20T00:27:11;102172.72;;;5.53;100.00
20909;BME280;10614;53.198;6.570;2023-02-20T00:29:15;102156.16;;;5.54;100.00
20909;BME280;10614;53.198;6.570;2023-02-20T00:31:16;102151.81;;;5.54;100.00
20909;BME280;10614;53.198;6.570;2023-02-20T00:33:19;102156.19;;;5.55;100.00
20909;BME280;10614;53.198;6.570;2023-02-20T00:35:21;102143.13;;;5.58;100.00
20909;BME280;10614;53.198;6.570;2023-02-20T00:37:24;102146.59;;;5.59;100.00
20909;BME280;10614;53.198;6.570;2023-02-20T00:39:26;102145.75;;;5.60;100.00
20909;BME280;10614;53.198;6.570;2023-02-20T00:41:28;102148.34;;;5.61;100.00
20909;BME280;10614;53.198;6.570;2023-02-20T00:43:29;102141.38;;;5.60;100.00
20909;BME280;10614;53.198;6.570;2023-02-20T00:45:35;102144.00;;;5.60;100.00
20909;BME280;10614;53.198;6.570;2023-02-20T00:47:37;102144.00;;;5.60;100.00
20909;BME280;10614;53.198;6.570;2023-02-20T00:49:38;102158.81;;;5.60;100.00
20909;BME280;10614;53.198;6.570;2023-02-20T00:51:40;102153.56;;;5.61;100.00
20909;BME280;10614;53.198;6.570;2023-02-20T00:53:44;102148.34;;;5.58;100.00
20909;BME280;10614;53.198;6.570;2023-02-20T00:55:45;102154.44;;;5.57;100.00
20909;BME280;10614;53.198;6.570;2023-02-20T00:57:47;102154.44;;;5.59;100.00
20909;BME280;10614;53.198;6.570;2023-02-20T00:59:49;102153.56;;;5.58;100.00
20909;BME280;10614;53.198;6.570;2023-02-20T01:01:51;102148.34;;;5.60;100.00
20909;BME280;10614;53.198;6.570;2023-02-20T01:03:52;102145.72;;;5.58;100.00
20909;BME280;10614;53.198;6.570;2023-02-20T01:05:54;102137.03;;;5.61;100.00
20909;BME280;10614;53.198;6.570;2023-02-20T01:07:55;102142.22;;;5.59;100.00
20909;BME280;10614;53.198;6.570;2023-02-20T01:09:58;102152.69;;;5.61;100.00
20909;BME280;10614;53.198;6.570;2023-02-20T01:12:00;102126.56;;;5.61;100.00
20909;BME280;10614;53.198;6.570;2023-02-20T01:14:02;102123.06;;;5.62;100.00
20909;BME280;10614;53.198;6.570;2023-02-20T01:16:04;102116.13;;;5.62;100.00
20909;BME280;10614;53.198;6.570;2023-02-20T01:18:06;102114.38;;;5.63;100.00
20909;BME280;10614;53.198;6.570;2023-02-20T01:20:09;102122.22;;;5.63;100.00
20909;BME280;10614;53.198;6.570;2023-02-20T01:22:10;102132.69;;;5.64;100.00
20909;BME280;10614;53.198;6.570;2023-02-20T01:24:12;102111.78;;;5.66;100.00
20909;BME280;10614;53.198;6.570;2023-02-20T01:26:15;102119.63;;;5.69;100.00
20909;BME280;10614;53.198;6.570;2023-02-20T01:28:17;102118.75;;;5.70;100.00
20909;BME280;10614;53.198;6.570;2023-02-20T01:30:18;102100.47;;;5.70;100.00
20909;BME280;10614;53.198;6.570;2023-02-20T01:32:20;102091.75;;;5.71;100.00
20909;BME280;10614;53.198;6.570;2023-02-20T01:34:22;102094.34;;;5.71;100.00
20909;BME280;10614;53.198;6.570;2023-02-20T01:36:23;102093.50;;;5.70;100.00
20909;BME280;10614;53.198;6.570;2023-02-20T01:38:26;102080.44;;;5.70;100.00
20909;BME280;10614;53.198;6.570;2023-02-20T01:40:28;102063.88;;;5.70;100.00
20909;BME280;10614;53.198;6.570;2023-02-20T01:42:31;102065.63;;;5.74;100.00
20909;BME280;10614;53.198;6.570;2023-02-20T01:44:35;102083.03;;;5.75;100.00
20909;BME280;10614;53.198;6.570;2023-02-20T01:46:50;102064.75;;;5.77;100.00
20909;BME280;10614;53.198;6.570;2023-02-20T01:48:52;102063.91;;;5.76;100.00
20909;BME280;10614;53.198;6.570;2023-02-20T01:50:57;102056.91;;;5.77;100.00
20909;BME280;10614;53.198;6.570;2023-02-20T01:53:03;102050.81;;;5.79;100.00
20909;BME280;10614;53.198;6.570;2023-02-20T01:55:11;102033.41;;;5.80;100.00
20909;BME280;10614;53.198;6.570;2023-02-20T01:57:18;102048.19;;;5.84;100.00
20909;BME280;10614;53.198;6.570;2023-02-20T01:59:23;102013.34;;;5.85;100.00
20909;BME280;10614;53.198;6.570;2023-02-20T02:01:25;101996.78;;;5.87;100.00
20909;BME280;10614;53.198;6.570;2023-02-20T02:03:30;102004.66;;;5.90;100.00
20909;BME280;10614;53.198;6.570;2023-02-20T02:05:34;101997.66;;;5.89;100.00
20909;BME280;10614;53.198;6.570;2023-02-20T02:07:37;101987.22;;;5.89;100.00
20909;BME280;10614;53.198;6.570;2023-02-20T02:09:44;101995.94;;;5.93;100.00
20909;BME280;10614;53.198;6.570;2023-02-20T02:11:48;101995.94;;;5.98;100.00
20909;BME280;10614;53.198;6.570;2023-02-20T02:13:50;101985.50;;;5.98;100.00
20909;BME280;10614;53.198;6.570;2023-02-20T02:16:00;102007.28;;;6.00;100.00
20909;BME280;10614;53.198;6.570;2023-02-20T02:21:02;102020.34;;;6.04;100.00
20909;BME280;10614;53.198;6.570;2023-02-20T02:25:51;101998.53;;;6.10;100.00
20909;BME280;10614;53.198;6.570;2023-02-20T02:28:22;101998.53;;;6.11;100.00
20909;BME280;10614;53.198;6.570;2023-02-20T02:30:53;102002.88;;;6.14;100.00
20909;BME280;10614;53.198;6.570;2023-02-20T02:36:16;101992.41;;;6.17;100.00
20909;BME280;10614;53.198;6.570;2023-02-20T02:38:25;101981.09;;;6.18;100.00
20909;BME280;10614;53.198;6.570;2023-02-20T02:40:35;101982.78;;;6.22;100.00
20909;BME280;10614;53.198;6.570;2023-02-20T02:42:46;101985.41;;;6.22;100.00
20909;BME280;10614;53.198;6.570;2023-02-20T02:44:55;101981.06;;;6.23;100.00
20909;BME280;10614;53.198;6.570;2023-02-20T02:47:01;101984.53;;;6.23;100.00
20909;BME280;10614;53.198;6.570;2023-02-20T02:49:06;101976.69;;;6.23;100.00
20909;BME280;10614;53.198;6.570;2023-02-20T02:51:15;101968.81;;;6.25;100.00
20909;BME280;10614;53.198;6.570;2023-02-20T02:53:20;101974.94;;;6.25;100.00
20909;BME280;10614;53.198;6.570;2023-02-20T02:55:23;101959.25;;;6.27;100.00
20909;BME280;10614;53.198;6.570;2023-02-20T02:57:26;101950.53;;;6.28;100.00
20909;BME280;10614;53.198;6.570;2023-02-20T02:59:30;101967.94;;;6.29;100.00
20909;BME280;10614;53.198;6.570;2023-02-20T03:01:35;101956.63;;;6.30;100.00
20909;BME280;10614;53.198;6.570;2023-02-20T03:03:39;101952.25;;;6.29;100.00
20909;BME280;10614;53.198;6.570;2023-02-20T03:05:47;101948.75;;;6.31;100.00
20909;BME280;10614;53.198;6.570;2023-02-20T03:07:53;101938.31;;;6.31;100.00
20909;BME280;10614;53.198;6.570;2023-02-20T03:09:59;101946.16;;;6.28;100.00
20909;BME280;10614;53.198;6.570;2023-02-20T03:12:01;101938.31;;;6.31;100.00
20909;BME280;10614;53.198;6.570;2023-02-20T03:14:07;101942.66;;;6.31;100.00
20909;BME280;10614;53.198;6.570;2023-02-20T03:16:31;101913.03;;;6.29;100.00
20909;BME280;10614;53.198;6.570;2023-02-20T03:18:38;101911.31;;;6.28;100.00
20909;BME280;10614;53.198;6.570;2023-02-20T03:20:43;101918.28;;;6.30;100.00
20909;BME280;10614;53.198;6.570;2023-02-20T03:22:47;101913.00;;;6.32;100.00
20909;BME280;10614;53.198;6.570;2023-02-20T03:24:54;101912.16;;;6.31;100.00
20909;BME280;10614;53.198;6.570;2023-02-20T03:26:59;101915.63;;;6.32;100.00
20909;BME280;10614;53.198;6.570;2023-02-20T03:29:05;101908.66;;;6.34;100.00
20909;BME280;10614;53.198;6.570;2023-02-20T03:31:11;101920.00;;;6.33;100.00
20909;BME280;10614;53.198;6.570;2023-02-20T03:33:19;101914.75;;;6.33;100.00
20909;BME280;10614;53.198;6.570;2023-02-20T03:35:41;101912.13;;;6.36;100.00
20909;BME280;10614;53.198;6.570;2023-02-20T03:38:03;101906.94;;;6.34;100.00
20909;BME280;10614;53.198;6.570;2023-02-20T03:40:25;101898.19;;;6.36;100.00
20909;BME280;10614;53.198;6.570;2023-02-20T03:42:49;101894.69;;;6.37;100.00
20909;BME280;10614;53.198;6.570;2023-02-20T03:45:10;101899.91;;;6.37;100.00
20909;BME280;10614;53.198;6.570;2023-02-20T03:47:14;101919.97;;;6.38;100.00
20909;BME280;10614;53.198;6.570;2023-02-20T03:49:20;101906.91;;;6.38;100.00
20909;BME280;10614;53.198;6.570;2023-02-20T03:51:23;101913.84;;;6.40;100.00
20909;BME280;10614;53.198;6.570;2023-02-20T03:53:24;101910.38;;;6.40;100.00
20909;BME280;10614;53.198;6.570;2023-02-20T03:55:26;101906.88;;;6.41;100.00
20909;BME280;10614;53.198;6.570;2023-02-20T03:57:31;101906.91;;;6.39;100.00
20909;BME280;10614;53.198;6.570;2023-02-20T03:59:39;101902.53;;;6.40;100.00
20909;BME280;10614;53.198;6.570;2023-02-20T04:01:43;101906.91;;;6.39;100.00
20909;BME280;10614;53.198;6.570;2023-02-20T04:03:48;101891.19;;;6.41;100.00
20909;BME280;10614;53.198;6.570;2023-02-20T04:05:53;101899.03;;;6.41;100.00
20909;BME280;10614;53.198;6.570;2023-02-20T04:07:59;101906.91;;;6.39;100.00
20909;BME280;10614;53.198;6.570;2023-02-20T04:10:06;101899.03;;;6.42;100.00
20909;BME280;10614;53.198;6.570;2023-02-20T04:12:14;101924.31;;;6.40;100.00
20909;BME280;10614;53.198;6.570;2023-02-20T04:14:19;101906.88;;;6.41;100.00
20909;BME280;10614;53.198;6.570;2023-02-20T04:16:23;101891.19;;;6.41;100.00
20909;BME280;10614;53.198;6.570;2023-02-20T04:18:25;101878.09;;;6.42;100.00
20909;BME280;10614;53.198;6.570;2023-02-20T04:20:27;101887.69;;;6.43;100.00
20909;BME280;10614;53.198;6.570;2023-02-20T04:22:35;101886.81;;;6.43;100.00
20909;BME280;10614;53.198;6.570;2023-02-20T04:24:41;101876.34;;;6.44;100.00
20909;BME280;10614;53.198;6.570;2023-02-20T04:26:45;101869.38;;;6.43;100.00
20909;BME280;10614;53.198;6.570;2023-02-20T04:28:47;101857.16;;;6.45;100.00
20909;BME280;10614;53.198;6.570;2023-02-20T04:30:50;101874.59;;;6.43;100.00
20909;BME280;10614;53.198;6.570;2023-02-20T04:32:53;101869.38;;;6.45;100.00
20909;BME280;10614;53.198;6.570;2023-02-20T04:34:55;101864.13;;;6.46;100.00
20909;BME280;10614;53.198;6.570;2023-02-20T04:37:05;101852.78;;;6.46;100.00
20909;BME280;10614;53.198;6.570;2023-02-20T04:39:07;101852.78;;;6.46;100.00
20909;BME280;10614;53.198;6.570;2023-02-20T04:41:09;101858.91;;;6.46;100.00
20909;BME280;10614;53.198;6.570;2023-02-20T04:43:11;101862.34;;;6.48;100.00
20909;BME280;10614;53.198;6.570;2023-02-20T04:45:13;101856.25;;;6.48;100.00
20909;BME280;10614;53.198;6.570;2023-02-20T04:47:17;101865.00;;;6.47;100.00
20909;BME280;10614;53.198;6.570;2023-02-20T04:49:20;101852.78;;;6.47;100.00
20909;BME280;10614;53.198;6.570;2023-02-20T04:51:22;101851.88;;;6.48;100.00
20909;BME280;10614;53.198;6.570;2023-02-20T04:53:23;101863.22;;;6.50;100.00
20909;BME280;10614;53.198;6.570;2023-02-20T04:55:26;101851.03;;;6.49;100.00
20909;BME280;10614;53.198;6.570;2023-02-20T04:57:28;101841.44;;;6.50;100.00
20909;BME280;10614;53.198;6.570;2023-02-20T04:59:29;101864.09;;;6.49;100.00
20909;BME280;10614;53.198;6.570;2023-02-20T05:01:31;101849.28;;;6.50;100.00
20909;BME280;10614;53.198;6.570;2023-02-20T05:03:32;101854.50;;;6.48;100.00
20909;BME280;10614;53.198;6.570;2023-02-20T05:05:36;101856.25;;;6.48;100.00
20909;BME280;10614;53.198;6.570;2023-02-20T05:07:38;101838.84;;;6.47;100.00
20909;BME280;10614;53.198;6.570;2023-02-20T05:09:42;101843.22;;;6.46;100.00
20909;BME280;10614;53.198;6.570;2023-02-20T05:11:43;101837.97;;;6.45;100.00
20909;BME280;10614;53.198;6.570;2023-02-20T05:13:45;101846.69;;;6.47;100.00
20909;BME280;10614;53.198;6.570;2023-02-20T05:15:46;101832.72;;;6.48;100.00
20909;BME280;10614;53.198;6.570;2023-02-20T05:17:48;101836.19;;;6.48;100.00
20909;BME280;10614;53.198;6.570;2023-02-20T05:19:50;101818.78;;;6.47;100.00
20909;BME280;10614;53.198;6.570;2023-02-20T05:21:53;101813.56;;;6.47;100.00
20909;BME280;10614;53.198;6.570;2023-02-20T05:24:12;101823.16;;;6.47;100.00
20909;BME280;10614;53.198;6.570;2023-02-20T05:26:17;101820.53;;;6.47;100.00
20909;BME280;10614;53.198;6.570;2023-02-20T05:28:19;101842.31;;;6.49;100.00
20909;BME280;10614;53.198;6.570;2023-02-20T05:30:21;101825.72;;;6.50;100.00
20909;BME280;10614;53.198;6.570;2023-02-20T05:32:25;101828.34;;;6.50;100.00
20909;BME280;10614;53.198;6.570;2023-02-20T05:34:27;101823.97;;;6.50;100.00
20909;BME280;10614;53.198;6.570;2023-02-20T05:36:28;101805.66;;;6.52;100.00
20909;BME280;10614;53.198;6.570;2023-02-20T05:38:31;101822.22;;;6.54;100.00
20909;BME280;10614;53.198;6.570;2023-02-20T05:40:33;101817.00;;;6.52;100.00
20909;BME280;10614;53.198;6.570;2023-02-20T05:42:35;101810.91;;;6.53;100.00
20909;BME280;10614;53.198;6.570;2023-02-20T05:44:37;101811.78;;;6.51;100.00
20909;BME280;10614;53.198;6.570;2023-02-20T05:46:40;101814.38;;;6.54;100.00
20909;BME280;10614;53.198;6.570;2023-02-20T05:48:42;101814.38;;;6.52;100.00
20909;BME280;10614;53.198;6.570;2023-02-20T05:50:44;101809.09;;;6.57;100.00
20909;BME280;10614;53.198;6.570;2023-02-20T05:52:45;101816.06;;;6.61;100.00
20909;BME280;10614;53.198;6.570;2023-02-20T05:54:48;101830.00;;;6.62;100.00
20909;BME280;10614;53.198;6.570;2023-02-20T05:56:50;101819.50;;;6.66;100.00
20909;BME280;10614;53.198;6.570;2023-02-20T05:58:52;101811.66;;;6.68;100.00
20909;BME280;10614;53.198;6.570;2023-02-20T06:00:53;101826.47;;;6.69;100.00
20909;BME280;10614;53.198;6.570;2023-02-20T06:02:55;101819.47;;;6.69;100.00
20909;BME280;10614;53.198;6.570;2023-02-20T06:04:57;101838.69;;;6.70;100.00
20909;BME280;10614;53.198;6.570;2023-02-20T06:06:58;101815.13;;;6.70;100.00
20909;BME280;10614;53.198;6.570;2023-02-20T06:09:00;101809.00;;;6.71;100.00
20909;BME280;10614;53.198;6.570;2023-02-20T06:11:04;101836.06;;;6.70;100.00
20909;BME280;10614;53.198;6.570;2023-02-20T06:13:06;101821.22;;;6.70;100.00
20909;BME280;10614;53.198;6.570;2023-02-20T06:15:08;101820.31;;;6.73;100.00
20909;BME280;10614;53.198;6.570;2023-02-20T06:17:09;101832.50;;;6.74;100.00
20909;BME280;10614;53.198;6.570;2023-02-20T06:19:16;101829.06;;;6.70;100.00
20909;BME280;10614;53.198;6.570;2023-02-20T06:21:19;101850.00;;;6.70;100.00
20909;BME280;10614;53.198;6.570;2023-02-20T06:23:22;101835.13;;;6.75;100.00
20909;BME280;10614;53.198;6.570;2023-02-20T06:25:24;101863.03;;;6.76;100.00
20909;BME280;10614;53.198;6.570;2023-02-20T06:27:27;101843.84;;;6.79;100.00
20909;BME280;10614;53.198;6.570;2023-02-20T06:29:29;101853.41;;;6.82;100.00
20909;BME280;10614;53.198;6.570;2023-02-20T06:31:30;101831.56;;;6.83;100.00
20909;BME280;10614;53.198;6.570;2023-02-20T06:33:33;101837.66;;;6.83;100.00
20909;BME280;10614;53.198;6.570;2023-02-20T06:35:34;101838.53;;;6.85;100.00
20909;BME280;10614;53.198;6.570;2023-02-20T06:37:36;101827.19;;;6.86;100.00
20909;BME280;10614;53.198;6.570;2023-02-20T06:39:38;101850.72;;;6.88;100.00
20909;BME280;10614;53.198;6.570;2023-02-20T06:41:42;101839.38;;;6.87;100.00
20909;BME280;10614;53.198;6.570;2023-02-20T06:43:45;101850.72;;;6.88;100.00
20909;BME280;10614;53.198;6.570;2023-02-20T06:45:47;101842.88;;;6.88;100.00
20909;BME280;10614;53.198;6.570;2023-02-20T06:47:49;101847.22;;;6.90;100.00
20909;BME280;10614;53.198;6.570;2023-02-20T06:49:50;101830.63;;;6.90;100.00
20909;BME280;10614;53.198;6.570;2023-02-20T06:51:53;101845.44;;;6.92;100.00
20909;BME280;10614;53.198;6.570;2023-02-20T06:53:54;101840.25;;;6.91;100.00
20909;BME280;10614;53.198;6.570;2023-02-20T06:55:56;101833.22;;;6.93;100.00
20909;BME280;10614;53.198;6.570;2023-02-20T06:57:58;101826.25;;;6.93;100.00
20909;BME280;10614;53.198;6.570;2023-02-20T07:00:01;101841.06;;;6.93;100.00
20909;BME280;10614;53.198;6.570;2023-02-20T07:02:04;101851.53;;;6.93;100.00
20909;BME280;10614;53.198;6.570;2023-02-20T07:04:07;101848.06;;;6.94;100.00
20909;BME280;10614;53.198;6.570;2023-02-20T07:06:15;101843.69;;;6.93;100.00
20909;BME280;10614;53.198;6.570;2023-02-20T07:08:17;101850.69;;;6.94;100.00
20909;BME280;10614;53.198;6.570;2023-02-20T07:10:18;101852.41;;;6.95;100.00
20909;BME280;10614;53.198;6.570;2023-02-20T07:12:20;101859.38;;;6.96;100.00
20909;BME280;10614;53.198;6.570;2023-02-20T07:14:22;101844.56;;;6.95;100.00
20909;BME280;10614;53.198;6.570;2023-02-20T07:16:25;101857.63;;;6.95;100.00
20909;BME280;10614;53.198;6.570;2023-02-20T07:18:27;101858.50;;;6.97;100.00
20909;BME280;10614;53.198;6.570;2023-02-20T07:20:28;101861.13;;;6.97;100.00
20909;BME280;10614;53.198;6.570;2023-02-20T07:22:30;101855.88;;;6.97;100.00
20909;BME280;10614;53.198;6.570;2023-02-20T07:24:31;101866.34;;;7.00;100.00
20909;BME280;10614;53.198;6.570;2023-02-20T07:26:35;101856.75;;;6.99;100.00
20909;BME280;10614;53.198;6.570;2023-02-20T07:28:38;101865.44;;;7.00;100.00
20909;BME280;10614;53.198;6.570;2023-02-20T07:30:40;101873.31;;;7.01;100.00
20909;BME280;10614;53.198;6.570;2023-02-20T07:32:44;101860.22;;;7.03;100.00
20909;BME280;10614;53.198;6.570;2023-02-20T07:34:45;101881.16;;;7.03;100.00
20909;BME280;10614;53.198;6.570;2023-02-20T07:36:48;101854.94;;;7.04;100.00
20909;BME280;10614;53.198;6.570;2023-02-20T07:38:53;101885.50;;;7.04;100.00
20909;BME280;10614;53.198;6.570;2023-02-20T07:40:55;101838.38;;;7.02;100.00
20909;BME280;10614;53.198;6.570;2023-02-20T07:42:57;101857.59;;;7.03;100.00
20909;BME280;10614;53.198;6.570;2023-02-20T07:44:58;101842.75;;;7.03;100.00
20909;BME280;10614;53.198;6.570;2023-02-20T07:47:00;101842.75;;;7.05;100.00
20909;BME280;10614;53.198;6.570;2023-02-20T07:49:04;101849.69;;;7.07;100.00
20909;BME280;10614;53.198;6.570;2023-02-20T07:51:05;101863.66;;;7.08;100.00
20909;BME280;10614;53.198;6.570;2023-02-20T07:53:08;101865.38;;;7.10;100.00
20909;BME280;10614;53.198;6.570;2023-02-20T07:55:12;101851.38;;;7.11;100.00
20909;BME280;10614;53.198;6.570;2023-02-20T07:57:14;101854.84;;;7.13;100.00
20909;BME280;10614;53.198;6.570;2023-02-20T07:59:16;101862.69;;;7.16;100.00
20909;BME280;10614;53.198;6.570;2023-02-20T08:01:18;101854.84;;;7.15;100.00
20909;BME280;10614;53.198;6.570;2023-02-20T08:03:20;101844.38;;;7.16;100.00
20909;BME280;10614;53.198;6.570;2023-02-20T08:05:23;101867.91;;;7.19;100.00
20909;BME280;10614;53.198;6.570;2023-02-20T08:07:24;101865.28;;;7.19;100.00
20909;BME280;10614;53.198;6.570;2023-02-20T08:09:26;101850.44;;;7.18;100.00
20909;BME280;10614;53.198;6.570;2023-02-20T08:11:32;101856.53;;;7.22;100.00
20909;BME280;10614;53.198;6.570;2023-02-20T08:13:33;101848.66;;;7.24;100.00
20909;BME280;10614;53.198;6.570;2023-02-20T08:15:35;101853.88;;;7.25;100.00
20909;BME280;10614;53.198;6.570;2023-02-20T08:17:37;101851.25;;;7.25;100.00
20909;BME280;10614;53.198;6.570;2023-02-20T08:19:39;101873.06;;;7.26;100.00
20909;BME280;10614;53.198;6.570;2023-02-20T08:21:42;101841.63;;;7.27;100.00
20909;BME280;10614;53.198;6.570;2023-02-20T08:23:43;101849.47;;;7.27;100.00
20909;BME280;10614;53.198;6.570;2023-02-20T08:25:45;101854.69;;;7.30;100.00
20909;BME280;10614;53.198;6.570;2023-02-20T08:27:48;101854.69;;;7.32;100.00
20909;BME280;10614;53.198;6.570;2023-02-20T08:29:50;101853.81;;;7.33;100.00
20909;BME280;10614;53.198;6.570;2023-02-20T08:31:51;101825.88;;;7.30;100.00
20909;BME280;10614;53.198;6.570;2023-02-20T08:33:53;101853.81;;;7.31;100.00
20909;BME280;10614;53.198;6.570;2023-02-20T08:35:55;101823.22;;;7.35;100.00
20909;BME280;10614;53.198;6.570;2023-02-20T08:37:58;101838.06;;;7.36;100.00
20909;BME280;10614;53.198;6.570;2023-02-20T08:40:00;101832.81;;;7.36;100.00
20909;BME280;10614;53.198;6.570;2023-02-20T08:42:06;101832.81;;;7.37;100.00
20909;BME280;10614;53.198;6.570;2023-02-20T08:44:07;101826.69;;;7.38;100.00
20909;BME280;10614;53.198;6.570;2023-02-20T08:46:09;101824.91;;;7.39;100.00
20909;BME280;10614;53.198;6.570;2023-02-20T08:48:10;101818.78;;;7.42;100.00
20909;BME280;10614;53.198;6.570;2023-02-20T08:50:12;101818.78;;;7.42;100.00
20909;BME280;10614;53.198;6.570;2023-02-20T08:52:15;101829.28;;;7.40;100.00
20909;BME280;10614;53.198;6.570;2023-02-20T08:54:18;101844.09;;;7.41;100.00
20909;BME280;10614;53.198;6.570;2023-02-20T08:56:20;101834.47;;;7.43;100.00
20909;BME280;10614;53.198;6.570;2023-02-20T08:58:23;101831.88;;;7.43;100.00
20909;BME280;10614;53.198;6.570;2023-02-20T09:00:25;101844.06;;;7.44;100.00
20909;BME280;10614;53.198;6.570;2023-02-20T09:02:27;101835.34;;;7.45;100.00
20909;BME280;10614;53.198;6.570;2023-02-20T09:04:29;101848.38;;;7.48;100.00
20909;BME280;10614;53.198;6.570;2023-02-20T09:06:31;101868.47;;;7.49;100.00
20909;BME280;10614;53.198;6.570;2023-02-20T09:08:32;101860.63;;;7.49;100.00
20909;BME280;10614;53.198;6.570;2023-02-20T09:10:35;101871.94;;;7.51;100.00
20909;BME280;10614;53.198;6.570;2023-02-20T09:12:37;101850.09;;;7.51;100.00
20909;BME280;10614;53.198;6.570;2023-02-20T09:14:41;101835.25;;;7.53;100.00
20909;BME280;10614;53.198;6.570;2023-02-20T09:16:43;101847.47;;;7.54;100.00
20909;BME280;10614;53.198;6.570;2023-02-20T09:18:44;101846.56;;;7.56;100.00
20909;BME280;10614;53.198;6.570;2023-02-20T09:20:46;101832.56;;;7.57;100.00
20909;BME280;10614;53.198;6.570;2023-02-20T09:22:49;101829.09;;;7.57;100.00
20909;BME280;10614;53.198;6.570;2023-02-20T09:24:51;101844.75;;;7.60;100.00
20909;BME280;10614;53.198;6.570;2023-02-20T09:26:54;101835.13;;;7.62;100.00
20909;BME280;10614;53.198;6.570;2023-02-20T09:28:56;101843.00;;;7.64;100.00
20909;BME280;10614;53.198;6.570;2023-02-20T09:30:58;101835.09;;;7.67;100.00
20909;BME280;10614;53.198;6.570;2023-02-20T09:32:59;101834.22;;;7.65;100.00
20909;BME280;10614;53.198;6.570;2023-02-20T09:35:01;101826.38;;;7.65;100.00
20909;BME280;10614;53.198;6.570;2023-02-20T09:37:03;101849.91;;;7.68;100.00
20909;BME280;10614;53.198;6.570;2023-02-20T09:39:05;101846.41;;;7.69;100.00
20909;BME280;10614;53.198;6.570;2023-02-20T09:41:17;101839.41;;;7.69;100.00
20909;BME280;10614;53.198;6.570;2023-02-20T09:43:25;101835.94;;;7.69;100.00
20909;BME280;10614;53.198;6.570;2023-02-20T09:45:32;101839.41;;;7.71;100.00
20909;BME280;10614;53.198;6.570;2023-02-20T09:47:43;101838.50;;;7.72;100.00
20909;BME280;10614;53.198;6.570;2023-02-20T09:49:47;101832.34;;;7.77;100.00
20909;BME280;10614;53.198;6.570;2023-02-20T09:51:53;101822.72;;;7.78;100.00
20909;BME280;10614;53.198;6.570;2023-02-20T09:54:00;101829.69;;;7.79;100.00
20909;BME280;10614;53.198;6.570;2023-02-20T09:56:04;101847.16;;;7.80;100.00
20909;BME280;10614;53.198;6.570;2023-02-20T09:58:19;101862.88;;;7.80;100.00
20909;BME280;10614;53.198;6.570;2023-02-20T10:00:28;101826.19;;;7.78;100.00
20909;BME280;10614;53.198;6.570;2023-02-20T10:02:33;101827.03;;;7.82;100.00
20909;BME280;10614;53.198;6.570;2023-02-20T10:04:42;101851.50;;;7.81;100.00
20909;BME280;10614;53.198;6.570;2023-02-20T10:06:45;101871.63;;;7.80;100.00
20909;BME280;10614;53.198;6.570;2023-02-20T10:08:48;101841.03;;;7.81;100.00
20909;BME280;10614;53.198;6.570;2023-02-20T10:10:51;101846.25;;;7.82;100.00
20909;BME280;10614;53.198;6.570;2023-02-20T10:13:04;101859.38;;;7.81;100.00
20909;BME280;10614;53.198;6.570;2023-02-20T10:15:17;101834.91;;;7.80;100.00
20909;BME280;10614;53.198;6.570;2023-02-20T10:17:28;101834.88;;;7.83;100.00
20909;BME280;10614;53.198;6.570;2023-02-20T10:19:35;101841.81;;;7.88;100.00
20909;BME280;10614;53.198;6.570;2023-02-20T10:21:48;101852.28;;;7.89;100.00
20909;BME280;10614;53.198;6.570;2023-02-20T10:23:56;101846.16;;;7.90;100.00
20909;BME280;10614;53.198;6.570;2023-02-20T10:26:02;101852.28;;;7.89;100.00
20909;BME280;10614;53.198;6.570;2023-02-20T10:28:08;101838.28;;;7.89;100.00
20909;BME280;10614;53.198;6.570;2023-02-20T10:30:16;101840.91;;;7.90;100.00
20909;BME280;10614;53.198;6.570;2023-02-20T10:32:24;101829.50;;;7.91;100.00
20909;BME280;10614;53.198;6.570;2023-02-20T10:34:30;101845.22;;;7.94;100.00
20909;BME280;10614;53.198;6.570;2023-02-20T10:36:38;101839.09;;;7.95;100.00
20909;BME280;10614;53.198;6.570;2023-02-20T10:38:46;101867.91;;;7.98;100.00
20909;BME280;10614;53.198;6.570;2023-02-20T10:40:55;101856.53;;;7.98;100.00
20909;BME280;10614;53.198;6.570;2023-02-20T10:43:02;101846.03;;;7.98;100.00
20909;BME280;10614;53.198;6.570;2023-02-20T10:45:10;101848.69;;;7.96;100.00
20909;BME280;10614;53.198;6.570;2023-02-20T10:47:19;101832.94;;;7.98;100.00
20909;BME280;10614;53.198;6.570;2023-02-20T10:49:31;101853.00;;;8.00;100.00
20909;BME280;10614;53.198;6.570;2023-02-20T10:51:40;101843.34;;;8.06;100.00
20909;BME280;10614;53.198;6.570;2023-02-20T10:53:46;101873.00;;;8.09;100.00
20909;BME280;10614;53.198;6.570;2023-02-20T10:55:54;101863.34;;;8.11;100.00
20909;BME280;10614;53.198;6.570;2023-02-20T10:58:02;101866.84;;;8.12;100.00